Terminal Aerodrome Forecast
Issued by NWS

Home | Current Version | Previous Version | Text Only | Print | Product List | Glossary On
Versions: 1 2 3 4 5 6 7 8 9 10 11 12 13 14 15 16
000
FTUS46 KSEW 200500
TAFBFI
TAF
KBFI 200520Z 2006/2106 16005KT P6SM SCT050 OVC100
     FM200900 16006KT P6SM -RA OVC050
     FM201200 16008KT P6SM -RA BKN025 OVC045
     FM201900 19006KT P6SM -SHRA SCT030 BKN050
     FM210000 18004KT P6SM -SHRA SCT030 BKN050
     FM210400 VRB03KT P6SM VCSH OVC030=

USA.gov is the U.S. government's official web portal to all federal, state and local government web resources and services.